sensor_id;sensor_type;location;lat;lon;timestamp;temperature;humidity
63445;DHT22;49573;47.682;9.170;2023-06-22T00:00:40;20.70;79.90
63445;DHT22;49573;47.682;9.170;2023-06-22T00:03:28;20.70;80.00
63445;DHT22;49573;47.682;9.170;2023-06-22T00:06:15;20.70;80.00
63445;DHT22;49573;47.682;9.170;2023-06-22T00:09:01;20.70;79.70
63445;DHT22;49573;47.682;9.170;2023-06-22T00:11:47;20.70;80.10
63445;DHT22;49573;47.682;9.170;2023-06-22T00:14:33;20.70;80.20
63445;DHT22;49573;47.682;9.170;2023-06-22T00:17:19;20.70;79.90
63445;DHT22;49573;47.682;9.170;2023-06-22T00:20:06;20.70;79.80
63445;DHT22;49573;47.682;9.170;2023-06-22T00:22:55;20.70;79.80
63445;DHT22;49573;47.682;9.170;2023-06-22T00:25:42;20.70;79.50
63445;DHT22;49573;47.682;9.170;2023-06-22T00:28:28;20.60;80.00
63445;DHT22;49573;47.682;9.170;2023-06-22T00:31:14;20.60;80.30
63445;DHT22;49573;47.682;9.170;2023-06-22T00:34:00;20.50;80.30
63445;DHT22;49573;47.682;9.170;2023-06-22T00:36:46;20.50;80.60
63445;DHT22;49573;47.682;9.170;2023-06-22T00:39:35;20.50;80.60
63445;DHT22;49573;47.682;9.170;2023-06-22T00:42:21;20.40;80.60
63445;DHT22;49573;47.682;9.170;2023-06-22T00:45:08;20.50;80.50
63445;DHT22;49573;47.682;9.170;2023-06-22T00:47:56;20.40;80.50
63445;DHT22;49573;47.682;9.170;2023-06-22T00:50:42;20.40;80.80
63445;DHT22;49573;47.682;9.170;2023-06-22T00:53:29;20.30;80.90
63445;DHT22;49573;47.682;9.170;2023-06-22T00:56:20;20.30;80.80
63445;DHT22;49573;47.682;9.170;2023-06-22T00:59:10;20.30;80.80
63445;DHT22;49573;47.682;9.170;2023-06-22T01:01:58;20.30;81.10
63445;DHT22;49573;47.682;9.170;2023-06-22T01:04:44;20.30;80.90
63445;DHT22;49573;47.682;9.170;2023-06-22T01:07:34;20.30;81.30
63445;DHT22;49573;47.682;9.170;2023-06-22T01:10:25;20.20;81.50
63445;DHT22;49573;47.682;9.170;2023-06-22T01:13:24;20.20;81.60
63445;DHT22;49573;47.682;9.170;2023-06-22T01:16:15;20.10;81.80
63445;DHT22;49573;47.682;9.170;2023-06-22T01:22:11;20.10;81.70
63445;DHT22;49573;47.682;9.170;2023-06-22T01:25:09;20.10;81.70
63445;DHT22;49573;47.682;9.170;2023-06-22T01:28:03;20.10;81.80
63445;DHT22;49573;47.682;9.170;2023-06-22T01:30:53;20.00;82.20
63445;DHT22;49573;47.682;9.170;2023-06-22T01:33:51;20.00;82.10
63445;DHT22;49573;47.682;9.170;2023-06-22T01:36:39;20.00;81.80
63445;DHT22;49573;47.682;9.170;2023-06-22T01:39:26;19.90;82.10
63445;DHT22;49573;47.682;9.170;2023-06-22T01:42:13;19.90;82.10
63445;DHT22;49573;47.682;9.170;2023-06-22T01:45:00;19.80;82.10
63445;DHT22;49573;47.682;9.170;2023-06-22T01:47:48;19.80;82.30
63445;DHT22;49573;47.682;9.170;2023-06-22T01:50:34;19.80;82.20
63445;DHT22;49573;47.682;9.170;2023-06-22T01:53:21;19.80;82.00
63445;DHT22;49573;47.682;9.170;2023-06-22T01:56:08;19.70;82.40
63445;DHT22;49573;47.682;9.170;2023-06-22T01:58:57;19.70;82.60
63445;DHT22;49573;47.682;9.170;2023-06-22T02:01:52;19.60;82.50
63445;DHT22;49573;47.682;9.170;2023-06-22T02:04:46;19.60;82.60
63445;DHT22;49573;47.682;9.170;2023-06-22T02:07:34;19.60;82.70
63445;DHT22;49573;47.682;9.170;2023-06-22T02:10:22;19.50;82.90
63445;DHT22;49573;47.682;9.170;2023-06-22T02:13:10;19.60;82.80
63445;DHT22;49573;47.682;9.170;2023-06-22T02:15:56;19.60;82.80
63445;DHT22;49573;47.682;9.170;2023-06-22T02:18:46;19.50;82.90
63445;DHT22;49573;47.682;9.170;2023-06-22T02:21:34;19.50;83.10
63445;DHT22;49573;47.682;9.170;2023-06-22T02:24:20;19.50;83.00
63445;DHT22;49573;47.682;9.170;2023-06-22T02:27:09;19.50;82.90
63445;DHT22;49573;47.682;9.170;2023-06-22T02:29:56;19.50;82.80
63445;DHT22;49573;47.682;9.170;2023-06-22T02:32:42;19.40;83.20
63445;DHT22;49573;47.682;9.170;2023-06-22T02:35:29;19.40;83.10
63445;DHT22;49573;47.682;9.170;2023-06-22T02:38:22;19.40;83.10
63445;DHT22;49573;47.682;9.170;2023-06-22T02:41:10;19.30;83.20
63445;DHT22;49573;47.682;9.170;2023-06-22T02:43:58;19.30;83.20
63445;DHT22;49573;47.682;9.170;2023-06-22T02:46:45;19.30;83.30
63445;DHT22;49573;47.682;9.170;2023-06-22T02:49:31;19.30;83.50
63445;DHT22;49573;47.682;9.170;2023-06-22T02:52:17;19.30;83.50
63445;DHT22;49573;47.682;9.170;2023-06-22T02:55:06;19.30;83.80
63445;DHT22;49573;47.682;9.170;2023-06-22T02:57:53;19.30;83.60
63445;DHT22;49573;47.682;9.170;2023-06-22T03:00:39;19.30;83.80
63445;DHT22;49573;47.682;9.170;2023-06-22T03:03:25;19.30;83.90
63445;DHT22;49573;47.682;9.170;2023-06-22T03:06:12;19.30;83.90
63445;DHT22;49573;47.682;9.170;2023-06-22T03:09:01;19.30;84.00
63445;DHT22;49573;47.682;9.170;2023-06-22T03:11:50;19.20;84.00
63445;DHT22;49573;47.682;9.170;2023-06-22T03:14:36;19.20;84.00
63445;DHT22;49573;47.682;9.170;2023-06-22T03:17:22;19.10;84.00
63445;DHT22;49573;47.682;9.170;2023-06-22T03:20:09;19.10;84.10
63445;DHT22;49573;47.682;9.170;2023-06-22T03:22:56;19.10;83.90
63445;DHT22;49573;47.682;9.170;2023-06-22T03:25:42;19.00;84.10
63445;DHT22;49573;47.682;9.170;2023-06-22T03:28:32;19.00;84.20
63445;DHT22;49573;47.682;9.170;2023-06-22T03:31:18;19.00;84.10
63445;DHT22;49573;47.682;9.170;2023-06-22T03:34:07;19.00;84.50
63445;DHT22;49573;47.682;9.170;2023-06-22T03:36:53;19.00;84.40
63445;DHT22;49573;47.682;9.170;2023-06-22T03:39:40;19.00;84.70
63445;DHT22;49573;47.682;9.170;2023-06-22T03:42:26;19.10;85.10
63445;DHT22;49573;47.682;9.170;2023-06-22T03:45:13;19.10;84.60
63445;DHT22;49573;47.682;9.170;2023-06-22T03:48:00;19.10;84.70
63445;DHT22;49573;47.682;9.170;2023-06-22T03:50:47;19.10;85.00
63445;DHT22;49573;47.682;9.170;2023-06-22T03:53:33;19.20;84.70
63445;DHT22;49573;47.682;9.170;2023-06-22T03:56:19;19.20;85.20
63445;DHT22;49573;47.682;9.170;2023-06-22T03:59:06;19.20;85.40
63445;DHT22;49573;47.682;9.170;2023-06-22T04:01:59;19.20;84.70
63445;DHT22;49573;47.682;9.170;2023-06-22T04:04:45;19.20;85.10
63445;DHT22;49573;47.682;9.170;2023-06-22T04:07:31;19.20;85.20
63445;DHT22;49573;47.682;9.170;2023-06-22T04:10:18;19.20;84.80
63445;DHT22;49573;47.682;9.170;2023-06-22T04:13:04;19.30;84.90
63445;DHT22;49573;47.682;9.170;2023-06-22T04:15:50;19.30;84.80
63445;DHT22;49573;47.682;9.170;2023-06-22T04:18:37;19.30;84.40
63445;DHT22;49573;47.682;9.170;2023-06-22T04:21:23;19.20;84.80
63445;DHT22;49573;47.682;9.170;2023-06-22T04:24:10;19.30;84.40
63445;DHT22;49573;47.682;9.170;2023-06-22T04:26:56;19.40;84.10
63445;DHT22;49573;47.682;9.170;2023-06-22T04:29:42;19.40;84.40
63445;DHT22;49573;47.682;9.170;2023-06-22T04:32:34;19.40;84.20
63445;DHT22;49573;47.682;9.170;2023-06-22T04:35:23;19.50;84.10
63445;DHT22;49573;47.682;9.170;2023-06-22T04:38:11;19.50;84.00
63445;DHT22;49573;47.682;9.170;2023-06-22T04:40:59;19.60;83.80
63445;DHT22;49573;47.682;9.170;2023-06-22T04:43:48;19.60;83.80
63445;DHT22;49573;47.682;9.170;2023-06-22T04:46:40;19.70;84.10
63445;DHT22;49573;47.682;9.170;2023-06-22T04:49:27;19.70;84.10
63445;DHT22;49573;47.682;9.170;2023-06-22T04:52:20;19.70;83.70
63445;DHT22;49573;47.682;9.170;2023-06-22T04:55:07;19.80;83.80
63445;DHT22;49573;47.682;9.170;2023-06-22T04:57:54;19.80;83.90
63445;DHT22;49573;47.682;9.170;2023-06-22T05:00:40;19.90;83.60
63445;DHT22;49573;47.682;9.170;2023-06-22T05:03:26;19.90;83.80
63445;DHT22;49573;47.682;9.170;2023-06-22T05:06:12;20.00;83.80
63445;DHT22;49573;47.682;9.170;2023-06-22T05:09:01;20.00;83.70
63445;DHT22;49573;47.682;9.170;2023-06-22T05:11:49;20.00;84.10
63445;DHT22;49573;47.682;9.170;2023-06-22T05:14:35;20.10;83.80
63445;DHT22;49573;47.682;9.170;2023-06-22T05:17:21;20.20;83.50
63445;DHT22;49573;47.682;9.170;2023-06-22T05:20:08;20.30;83.40
63445;DHT22;49573;47.682;9.170;2023-06-22T05:22:55;20.30;83.30
63445;DHT22;49573;47.682;9.170;2023-06-22T05:25:43;20.40;82.90
63445;DHT22;49573;47.682;9.170;2023-06-22T05:28:29;20.40;83.10
63445;DHT22;49573;47.682;9.170;2023-06-22T05:31:15;20.40;83.30
63445;DHT22;49573;47.682;9.170;2023-06-22T05:34:01;20.50;82.80
63445;DHT22;49573;47.682;9.170;2023-06-22T05:36:48;20.60;82.20
63445;DHT22;49573;47.682;9.170;2023-06-22T05:39:34;20.80;81.80
63445;DHT22;49573;47.682;9.170;2023-06-22T05:42:21;20.80;81.90
63445;DHT22;49573;47.682;9.170;2023-06-22T05:45:08;20.90;81.40
63445;DHT22;49573;47.682;9.170;2023-06-22T05:47:54;21.00;81.00
63445;DHT22;49573;47.682;9.170;2023-06-22T05:50:40;21.10;80.80
63445;DHT22;49573;47.682;9.170;2023-06-22T05:53:26;21.10;80.60
63445;DHT22;49573;47.682;9.170;2023-06-22T05:56:12;21.20;80.80
63445;DHT22;49573;47.682;9.170;2023-06-22T05:58:59;21.30;80.20
63445;DHT22;49573;47.682;9.170;2023-06-22T06:01:45;21.40;79.60
63445;DHT22;49573;47.682;9.170;2023-06-22T06:04:35;21.50;80.00
63445;DHT22;49573;47.682;9.170;2023-06-22T06:07:21;21.60;79.20
63445;DHT22;49573;47.682;9.170;2023-06-22T06:10:08;21.70;79.10
63445;DHT22;49573;47.682;9.170;2023-06-22T06:12:54;21.70;78.80
63445;DHT22;49573;47.682;9.170;2023-06-22T06:15:42;21.80;79.10
63445;DHT22;49573;47.682;9.170;2023-06-22T06:18:28;21.80;78.30
63445;DHT22;49573;47.682;9.170;2023-06-22T06:21:14;21.80;77.90
63445;DHT22;49573;47.682;9.170;2023-06-22T06:24:00;21.80;78.20
63445;DHT22;49573;47.682;9.170;2023-06-22T06:26:46;22.00;77.80
63445;DHT22;49573;47.682;9.170;2023-06-22T06:29:32;22.00;77.20
63445;DHT22;49573;47.682;9.170;2023-06-22T06:32:20;22.10;77.10
63445;DHT22;49573;47.682;9.170;2023-06-22T06:35:07;22.20;77.20
63445;DHT22;49573;47.682;9.170;2023-06-22T06:37:54;22.30;76.30
63445;DHT22;49573;47.682;9.170;2023-06-22T06:40:40;22.30;76.30
63445;DHT22;49573;47.682;9.170;2023-06-22T06:43:26;22.40;76.00
63445;DHT22;49573;47.682;9.170;2023-06-22T06:46:12;22.60;75.80
63445;DHT22;49573;47.682;9.170;2023-06-22T06:49:00;22.70;74.50
63445;DHT22;49573;47.682;9.170;2023-06-22T06:51:46;22.80;74.90
63445;DHT22;49573;47.682;9.170;2023-06-22T06:54:32;22.80;74.80
63445;DHT22;49573;47.682;9.170;2023-06-22T06:57:18;22.90;74.30
63445;DHT22;49573;47.682;9.170;2023-06-22T07:00:05;23.00;74.40
63445;DHT22;49573;47.682;9.170;2023-06-22T07:02:59;23.20;74.60
63445;DHT22;49573;47.682;9.170;2023-06-22T07:05:46;23.30;73.20
63445;DHT22;49573;47.682;9.170;2023-06-22T07:08:32;23.30;73.10
63445;DHT22;49573;47.682;9.170;2023-06-22T07:11:18;23.50;73.20
63445;DHT22;49573;47.682;9.170;2023-06-22T07:14:04;23.60;72.90
63445;DHT22;49573;47.682;9.170;2023-06-22T07:16:50;23.70;72.30
63445;DHT22;49573;47.682;9.170;2023-06-22T07:19:36;23.80;72.20
63445;DHT22;49573;47.682;9.170;2023-06-22T07:22:24;23.80;72.40
63445;DHT22;49573;47.682;9.170;2023-06-22T07:25:10;23.80;71.50
63445;DHT22;49573;47.682;9.170;2023-06-22T07:28:02;23.80;71.50
63445;DHT22;49573;47.682;9.170;2023-06-22T07:30:49;23.90;71.40
63445;DHT22;49573;47.682;9.170;2023-06-22T07:33:37;24.10;70.90
63445;DHT22;49573;47.682;9.170;2023-06-22T07:36:23;24.00;70.70
63445;DHT22;49573;47.682;9.170;2023-06-22T07:39:11;24.30;70.80
63445;DHT22;49573;47.682;9.170;2023-06-22T07:41:57;24.50;69.80
63445;DHT22;49573;47.682;9.170;2023-06-22T07:44:44;24.60;69.00
63445;DHT22;49573;47.682;9.170;2023-06-22T07:47:30;24.70;68.70
63445;DHT22;49573;47.682;9.170;2023-06-22T07:50:16;24.80;68.40
63445;DHT22;49573;47.682;9.170;2023-06-22T07:53:02;24.80;67.30
63445;DHT22;49573;47.682;9.170;2023-06-22T07:55:49;24.80;68.20
63445;DHT22;49573;47.682;9.170;2023-06-22T07:58:35;24.80;68.50
63445;DHT22;49573;47.682;9.170;2023-06-22T08:01:21;24.80;67.30
63445;DHT22;49573;47.682;9.170;2023-06-22T08:04:07;24.90;67.60
63445;DHT22;49573;47.682;9.170;2023-06-22T08:06:54;24.90;68.20
63445;DHT22;49573;47.682;9.170;2023-06-22T08:09:46;24.90;68.80
63445;DHT22;49573;47.682;9.170;2023-06-22T08:12:33;24.60;70.20
63445;DHT22;49573;47.682;9.170;2023-06-22T08:15:19;24.60;69.80
63445;DHT22;49573;47.682;9.170;2023-06-22T08:18:06;24.40;70.60
63445;DHT22;49573;47.682;9.170;2023-06-22T08:20:52;24.30;70.60
63445;DHT22;49573;47.682;9.170;2023-06-22T08:23:38;24.40;70.60
63445;DHT22;49573;47.682;9.170;2023-06-22T08:26:24;24.30;71.20
63445;DHT22;49573;47.682;9.170;2023-06-22T08:29:11;24.50;71.00
63445;DHT22;49573;47.682;9.170;2023-06-22T08:31:58;24.40;70.10
63445;DHT22;49573;47.682;9.170;2023-06-22T08:34:44;24.30;70.90
63445;DHT22;49573;47.682;9.170;2023-06-22T08:37:30;24.50;70.90
63445;DHT22;49573;47.682;9.170;2023-06-22T08:40:19;24.70;70.10
63445;DHT22;49573;47.682;9.170;2023-06-22T08:43:06;24.70;70.10
63445;DHT22;49573;47.682;9.170;2023-06-22T08:45:53;24.80;70.40
63445;DHT22;49573;47.682;9.170;2023-06-22T08:48:39;25.10;70.00
63445;DHT22;49573;47.682;9.170;2023-06-22T08:51:27;25.30;69.00
63445;DHT22;49573;47.682;9.170;2023-06-22T08:54:13;25.50;69.60
63445;DHT22;49573;47.682;9.170;2023-06-22T08:56:59;25.50;69.70
63445;DHT22;49573;47.682;9.170;2023-06-22T08:59:45;25.60;69.70
63445;DHT22;49573;47.682;9.170;2023-06-22T09:02:35;25.70;69.40
63445;DHT22;49573;47.682;9.170;2023-06-22T09:05:22;25.70;68.10
63445;DHT22;49573;47.682;9.170;2023-06-22T09:08:08;26.00;67.90
63445;DHT22;49573;47.682;9.170;2023-06-22T09:10:54;26.10;68.40
63445;DHT22;49573;47.682;9.170;2023-06-22T09:13:40;26.10;67.80
63445;DHT22;49573;47.682;9.170;2023-06-22T09:16:26;26.30;68.60
63445;DHT22;49573;47.682;9.170;2023-06-22T09:19:14;26.50;68.00
63445;DHT22;49573;47.682;9.170;2023-06-22T09:22:00;26.50;66.20
63445;DHT22;49573;47.682;9.170;2023-06-22T09:24:46;26.50;66.80
63445;DHT22;49573;47.682;9.170;2023-06-22T09:27:34;26.80;65.60
63445;DHT22;49573;47.682;9.170;2023-06-22T09:30:21;27.00;66.00
63445;DHT22;49573;47.682;9.170;2023-06-22T09:33:08;27.30;65.00
63445;DHT22;49573;47.682;9.170;2023-06-22T09:35:58;27.50;65.20
63445;DHT22;49573;47.682;9.170;2023-06-22T09:38:44;27.30;63.10
63445;DHT22;49573;47.682;9.170;2023-06-22T09:41:30;27.40;64.70
63445;DHT22;49573;47.682;9.170;2023-06-22T09:44:16;27.30;63.90
63445;DHT22;49573;47.682;9.170;2023-06-22T09:47:05;27.50;64.00
63445;DHT22;49573;47.682;9.170;2023-06-22T09:49:52;27.70;63.70
63445;DHT22;49573;47.682;9.170;2023-06-22T09:52:39;27.80;64.70
63445;DHT22;49573;47.682;9.170;2023-06-22T09:55:25;28.10;63.80
63445;DHT22;49573;47.682;9.170;2023-06-22T09:58:11;28.30;63.30
63445;DHT22;49573;47.682;9.170;2023-06-22T10:00:57;28.30;61.60
63445;DHT22;49573;47.682;9.170;2023-06-22T10:03:44;28.40;62.30
63445;DHT22;49573;47.682;9.170;2023-06-22T10:06:30;28.60;62.60
63445;DHT22;49573;47.682;9.170;2023-06-22T10:09:17;28.80;61.60
63445;DHT22;49573;47.682;9.170;2023-06-22T10:12:03;28.80;59.90
63445;DHT22;49573;47.682;9.170;2023-06-22T10:14:49;28.80;59.90
63445;DHT22;49573;47.682;9.170;2023-06-22T10:17:35;29.00;59.00
63445;DHT22;49573;47.682;9.170;2023-06-22T10:20:22;29.10;60.60
63445;DHT22;49573;47.682;9.170;2023-06-22T10:23:08;29.20;60.70
63445;DHT22;49573;47.682;9.170;2023-06-22T10:25:55;29.20;60.30
63445;DHT22;49573;47.682;9.170;2023-06-22T10:28:44;29.50;59.80
63445;DHT22;49573;47.682;9.170;2023-06-22T10:31:30;29.40;58.80
63445;DHT22;49573;47.682;9.170;2023-06-22T10:34:16;29.50;58.00
63445;DHT22;49573;47.682;9.170;2023-06-22T10:37:02;29.70;57.90
63445;DHT22;49573;47.682;9.170;2023-06-22T10:39:48;29.80;58.30
63445;DHT22;49573;47.682;9.170;2023-06-22T10:42:36;29.70;56.70
63445;DHT22;49573;47.682;9.170;2023-06-22T10:45:22;29.70;57.50
63445;DHT22;49573;47.682;9.170;2023-06-22T10:48:08;30.00;57.30
63445;DHT22;49573;47.682;9.170;2023-06-22T10:50:54;30.00;57.10
63445;DHT22;49573;47.682;9.170;2023-06-22T10:53:40;30.00;56.70
63445;DHT22;49573;47.682;9.170;2023-06-22T10:56:26;30.10;56.90
63445;DHT22;49573;47.682;9.170;2023-06-22T10:59:14;30.20;55.90
63445;DHT22;49573;47.682;9.170;2023-06-22T11:02:00;30.00;57.60
63445;DHT22;49573;47.682;9.170;2023-06-22T11:04:46;30.00;56.90
63445;DHT22;49573;47.682;9.170;2023-06-22T11:07:33;30.10;56.30
63445;DHT22;49573;47.682;9.170;2023-06-22T11:10:19;30.20;56.80
63445;DHT22;49573;47.682;9.170;2023-06-22T11:13:05;30.00;57.10
63445;DHT22;49573;47.682;9.170;2023-06-22T11:15:56;29.90;56.80
63445;DHT22;49573;47.682;9.170;2023-06-22T11:18:43;29.80;57.50
63445;DHT22;49573;47.682;9.170;2023-06-22T11:21:29;29.80;57.40
63445;DHT22;49573;47.682;9.170;2023-06-22T11:24:15;29.80;58.40
63445;DHT22;49573;47.682;9.170;2023-06-22T11:27:01;30.00;57.20
63445;DHT22;49573;47.682;9.170;2023-06-22T11:29:47;30.10;57.10
63445;DHT22;49573;47.682;9.170;2023-06-22T11:32:35;30.10;57.50
63445;DHT22;49573;47.682;9.170;2023-06-22T11:35:21;30.10;56.20
63445;DHT22;49573;47.682;9.170;2023-06-22T11:38:07;29.90;57.10
63445;DHT22;49573;47.682;9.170;2023-06-22T11:40:53;29.90;57.10
63445;DHT22;49573;47.682;9.170;2023-06-22T11:43:39;29.90;57.30
63445;DHT22;49573;47.682;9.170;2023-06-22T11:46:26;29.80;57.00
63445;DHT22;49573;47.682;9.170;2023-06-22T11:49:13;29.70;57.50
63445;DHT22;49573;47.682;9.170;2023-06-22T11:51:59;29.70;57.80
63445;DHT22;49573;47.682;9.170;2023-06-22T11:54:45;29.80;58.40
63445;DHT22;49573;47.682;9.170;2023-06-22T11:57:33;29.90;57.70
63445;DHT22;49573;47.682;9.170;2023-06-22T12:00:19;30.00;57.10
63445;DHT22;49573;47.682;9.170;2023-06-22T12:03:06;30.20;57.90
63445;DHT22;49573;47.682;9.170;2023-06-22T12:05:54;30.40;57.10
63445;DHT22;49573;47.682;9.170;2023-06-22T12:08:40;30.40;56.60
63445;DHT22;49573;47.682;9.170;2023-06-22T12:11:26;30.40;57.10
63445;DHT22;49573;47.682;9.170;2023-06-22T12:14:12;30.20;56.80
63445;DHT22;49573;47.682;9.170;2023-06-22T12:16:59;30.00;58.00
63445;DHT22;49573;47.682;9.170;2023-06-22T12:19:45;30.30;58.20
63445;DHT22;49573;47.682;9.170;2023-06-22T12:22:33;30.40;57.70
63445;DHT22;49573;47.682;9.170;2023-06-22T12:25:19;30.40;57.70
63445;DHT22;49573;47.682;9.170;2023-06-22T12:28:05;30.10;57.00
63445;DHT22;49573;47.682;9.170;2023-06-22T12:30:51;29.80;57.90
63445;DHT22;49573;47.682;9.170;2023-06-22T12:33:37;29.70;59.60
63445;DHT22;49573;47.682;9.170;2023-06-22T12:36:23;29.90;59.00
63445;DHT22;49573;47.682;9.170;2023-06-22T12:39:11;29.70;59.30
63445;DHT22;49573;47.682;9.170;2023-06-22T12:41:57;29.80;59.60
63445;DHT22;49573;47.682;9.170;2023-06-22T12:44:43;30.20;57.40
63445;DHT22;49573;47.682;9.170;2023-06-22T12:47:30;29.70;57.20
63445;DHT22;49573;47.682;9.170;2023-06-22T12:50:16;30.10;57.50
63445;DHT22;49573;47.682;9.170;2023-06-22T12:53:02;30.20;57.10
63445;DHT22;49573;47.682;9.170;2023-06-22T12:55:52;30.30;56.90
63445;DHT22;49573;47.682;9.170;2023-06-22T12:58:38;30.40;56.50
63445;DHT22;49573;47.682;9.170;2023-06-22T13:01:24;30.70;54.60
63445;DHT22;49573;47.682;9.170;2023-06-22T13:04:10;30.70;55.40
63445;DHT22;49573;47.682;9.170;2023-06-22T13:06:58;30.50;55.00
63445;DHT22;49573;47.682;9.170;2023-06-22T13:09:44;30.90;56.40
63445;DHT22;49573;47.682;9.170;2023-06-22T13:12:33;31.80;55.20
63445;DHT22;49573;47.682;9.170;2023-06-22T13:15:19;31.60;53.90
63445;DHT22;49573;47.682;9.170;2023-06-22T13:18:05;31.30;53.80
63445;DHT22;49573;47.682;9.170;2023-06-22T13:20:51;31.00;55.00
63445;DHT22;49573;47.682;9.170;2023-06-22T13:23:40;31.20;54.70
63445;DHT22;49573;47.682;9.170;2023-06-22T13:26:26;31.10;54.40
63445;DHT22;49573;47.682;9.170;2023-06-22T13:29:16;31.00;54.80
63445;DHT22;49573;47.682;9.170;2023-06-22T13:32:02;31.00;54.60
63445;DHT22;49573;47.682;9.170;2023-06-22T13:34:48;30.80;54.40
63445;DHT22;49573;47.682;9.170;2023-06-22T13:37:34;30.80;54.70
63445;DHT22;49573;47.682;9.170;2023-06-22T13:40:20;30.80;55.50
63445;DHT22;49573;47.682;9.170;2023-06-22T13:43:07;31.00;55.00
63445;DHT22;49573;47.682;9.170;2023-06-22T13:45:54;31.20;54.60
63445;DHT22;49573;47.682;9.170;2023-06-22T13:48:40;30.70;55.30
63445;DHT22;49573;47.682;9.170;2023-06-22T13:51:26;31.00;55.70
63445;DHT22;49573;47.682;9.170;2023-06-22T13:54:12;30.80;55.20
63445;DHT22;49573;47.682;9.170;2023-06-22T13:56:58;31.00;55.20
63445;DHT22;49573;47.682;9.170;2023-06-22T13:59:44;31.10;54.10
63445;DHT22;49573;47.682;9.170;2023-06-22T14:02:32;30.80;54.80
63445;DHT22;49573;47.682;9.170;2023-06-22T14:05:18;30.80;54.60
63445;DHT22;49573;47.682;9.170;2023-06-22T14:08:04;31.10;54.20
63445;DHT22;49573;47.682;9.170;2023-06-22T14:10:50;31.00;52.90
63445;DHT22;49573;47.682;9.170;2023-06-22T14:13:36;31.10;52.70
63445;DHT22;49573;47.682;9.170;2023-06-22T14:16:22;31.50;52.30
63445;DHT22;49573;47.682;9.170;2023-06-22T14:19:09;31.90;52.40
63445;DHT22;49573;47.682;9.170;2023-06-22T14:21:56;31.80;52.00
63445;DHT22;49573;47.682;9.170;2023-06-22T14:24:42;31.20;46.50
63445;DHT22;49573;47.682;9.170;2023-06-22T14:27:29;30.70;47.20
63445;DHT22;49573;47.682;9.170;2023-06-22T14:30:15;30.40;46.70
63445;DHT22;49573;47.682;9.170;2023-06-22T14:33:01;30.30;47.20
63445;DHT22;49573;47.682;9.170;2023-06-22T14:35:49;30.30;45.90
63445;DHT22;49573;47.682;9.170;2023-06-22T14:38:35;30.00;46.30
63445;DHT22;49573;47.682;9.170;2023-06-22T14:41:21;29.90;46.20
63445;DHT22;49573;47.682;9.170;2023-06-22T14:44:07;29.90;47.50
63445;DHT22;49573;47.682;9.170;2023-06-22T14:46:53;29.80;47.60
63445;DHT22;49573;47.682;9.170;2023-06-22T14:49:39;29.80;45.30
63445;DHT22;49573;47.682;9.170;2023-06-22T15:00:47;30.50;43.40
63445;DHT22;49573;47.682;9.170;2023-06-22T15:03:34;29.80;44.20
63445;DHT22;49573;47.682;9.170;2023-06-22T15:06:21;29.70;44.80
63445;DHT22;49573;47.682;9.170;2023-06-22T15:09:09;29.80;45.00
63445;DHT22;49573;47.682;9.170;2023-06-22T15:11:55;29.90;44.50
63445;DHT22;49573;47.682;9.170;2023-06-22T15:14:41;30.00;45.60
63445;DHT22;49573;47.682;9.170;2023-06-22T15:20:16;30.50;45.00
63445;DHT22;49573;47.682;9.170;2023-06-22T15:23:02;30.30;44.30
63445;DHT22;49573;47.682;9.170;2023-06-22T15:28:36;30.30;45.40
63445;DHT22;49573;47.682;9.170;2023-06-22T15:31:23;29.80;45.70
63445;DHT22;49573;47.682;9.170;2023-06-22T15:34:09;29.70;47.10
63445;DHT22;49573;47.682;9.170;2023-06-22T15:36:57;29.90;46.30
63445;DHT22;49573;47.682;9.170;2023-06-22T15:39:43;30.00;46.70
63445;DHT22;49573;47.682;9.170;2023-06-22T15:42:30;30.10;45.80
63445;DHT22;49573;47.682;9.170;2023-06-22T15:45:16;30.20;45.60
63445;DHT22;49573;47.682;9.170;2023-06-22T15:48:03;30.10;45.10
63445;DHT22;49573;47.682;9.170;2023-06-22T15:50:49;30.10;45.30
63445;DHT22;49573;47.682;9.170;2023-06-22T16:01:56;30.00;45.30
63445;DHT22;49573;47.682;9.170;2023-06-22T16:04:43;29.80;45.60
63445;DHT22;49573;47.682;9.170;2023-06-22T16:07:29;29.60;46.10
63445;DHT22;49573;47.682;9.170;2023-06-22T16:10:15;29.40;46.30
63445;DHT22;49573;47.682;9.170;2023-06-22T16:13:03;29.10;45.30
63445;DHT22;49573;47.682;9.170;2023-06-22T16:18:37;28.80;47.40
63445;DHT22;49573;47.682;9.170;2023-06-22T16:21:23;28.80;47.70
63445;DHT22;49573;47.682;9.170;2023-06-22T16:51:58;27.70;49.80
63445;DHT22;49573;47.682;9.170;2023-06-22T16:54:46;27.50;50.30
63445;DHT22;49573;47.682;9.170;2023-06-22T16:57:35;27.30;51.20
63445;DHT22;49573;47.682;9.170;2023-06-22T17:00:22;27.30;52.10
63445;DHT22;49573;47.682;9.170;2023-06-22T17:03:08;27.10;52.50
63445;DHT22;49573;47.682;9.170;2023-06-22T17:05:57;26.90;53.50
63445;DHT22;49573;47.682;9.170;2023-06-22T17:08:44;26.80;54.80
63445;DHT22;49573;47.682;9.170;2023-06-22T17:11:32;26.70;57.00
63445;DHT22;49573;47.682;9.170;2023-06-22T17:14:18;26.30;59.40
63445;DHT22;49573;47.682;9.170;2023-06-22T17:17:04;25.90;61.40
63445;DHT22;49573;47.682;9.170;2023-06-22T17:19:50;25.60;63.20
63445;DHT22;49573;47.682;9.170;2023-06-22T17:22:37;25.30;64.20
63445;DHT22;49573;47.682;9.170;2023-06-22T17:25:24;25.10;64.60
63445;DHT22;49573;47.682;9.170;2023-06-22T17:28:14;24.60;65.50
63445;DHT22;49573;47.682;9.170;2023-06-22T17:31:09;24.50;65.60
63445;DHT22;49573;47.682;9.170;2023-06-22T17:33:56;24.40;64.80
63445;DHT22;49573;47.682;9.170;2023-06-22T17:36:45;24.30;64.90
63445;DHT22;49573;47.682;9.170;2023-06-22T17:39:31;24.50;68.10
63445;DHT22;49573;47.682;9.170;2023-06-22T17:42:21;24.50;68.80
63445;DHT22;49573;47.682;9.170;2023-06-22T17:45:15;24.40;64.80
63445;DHT22;49573;47.682;9.170;2023-06-22T17:48:02;23.90;66.40
63445;DHT22;49573;47.682;9.170;2023-06-22T17:50:48;23.90;66.60
63445;DHT22;49573;47.682;9.170;2023-06-22T17:53:34;23.90;65.30
63445;DHT22;49573;47.682;9.170;2023-06-22T17:56:22;23.90;65.00
63445;DHT22;49573;47.682;9.170;2023-06-22T17:59:08;23.80;66.10
63445;DHT22;49573;47.682;9.170;2023-06-22T18:01:55;23.70;67.30
63445;DHT22;49573;47.682;9.170;2023-06-22T18:04:41;23.60;67.20
63445;DHT22;49573;47.682;9.170;2023-06-22T18:07:28;23.50;67.90
63445;DHT22;49573;47.682;9.170;2023-06-22T18:10:14;23.30;69.10
63445;DHT22;49573;47.682;9.170;2023-06-22T18:13:01;23.30;68.10
63445;DHT22;49573;47.682;9.170;2023-06-22T18:15:49;23.20;67.00
63445;DHT22;49573;47.682;9.170;2023-06-22T18:18:39;23.20;67.30
63445;DHT22;49573;47.682;9.170;2023-06-22T18:21:26;22.90;68.20
63445;DHT22;49573;47.682;9.170;2023-06-22T18:24:13;23.00;68.70
63445;DHT22;49573;47.682;9.170;2023-06-22T18:27:00;23.00;69.30
63445;DHT22;49573;47.682;9.170;2023-06-22T18:29:50;22.90;70.10